Helderberg, NY

1:48 PM EST on November 18, 2019 (GMT -0500)
Remley Lane - 1760' | | Change Station
Active Advisory: Winter Weather Advisory

Elev 1760 ft 42.58 °N, 74.07 °W | Updated 6 seconds ago

Overcast
Overcast
31.6 °F
Feels Like 27 °F
N
5
Wind Variable Wind from WNW
Gusts 7.0 mph

Today
High -- | Low -- °F
--% Chance of Precip.
Yesterday
High -- | Low -- °F
Precip. -- in
Pressure 29.84 in
Visibility 3.0 miles
Clouds Mostly Cloudy 1100 ft
Overcast 1900 ft
Windchill 27 °F
Dew Point 31 °F
Humidity 96%
Rainfall 0.01 in
Snow Depth Not available.
6:51 AM 4:31 PM
Waning Gibbous, 62% visible
SPECI KALB 181840Z 36008KT 3SM -DZ BKN011 OVC019 03/00 A2984 RMK AO2 DZB13 VIS HYR NE-SE P0000 T00330000
Pressure 29.84 in
Visibility 3.0 miles
Clouds Mostly Cloudy 1100 ft
Overcast 1900 ft
Windchill 27 °F
Dew Point 31 °F
Humidity 96%
Rainfall 0.01 in
Snow Depth Not available.
6:51 AM 4:31 PM
Waning Gibbous, 62% visible
SPECI KALB 181840Z 36008KT 3SM -DZ BKN011 OVC019 03/00 A2984 RMK AO2 DZB13 VIS HYR NE-SE P0000 T00330000

Get Your Daily Forecast Email!

Thanks for signing up!

Be on the lookout for a verification email in your inbox.

You'll start receiving severe weather alerts in your inbox..

×

10-Day Weather Forecast

Almanac

Astronomy

Nov. 18, 2019 Rise Set
Actual Time
Civil Twilight
Nautical Twilight
Astronomical Twilight
Moon
Length of Visible Light
Length of Day
Tomorrow will be .
, % of the Moon is Illuminated

Today's Extremes

State Highs State Lows

Community

WunderPhotos

Category 6

Welcome to Category 6. This is the collective home for Weather Underground's featured writeups by Dr. Jeff Masters (right), Bob Henson (left), Chris Burt, and other regular contributors.

Nearby

Air Quality

  Air Quality AQ Index Pollutant
Not available.

Snow Depth

Station Depth Elevation

Earthquake Activity

City Distance Mag. Time & Date
Minimum magnitude displayed is 2.5.

Coastal Water Temperatures

Place Temperature

Stations

Nearby Weather Stations

Station Location Temp. Windchill Dew Point Humidity Wind Precip. Elev Updated Type
                   

Watches & Warnings

Winter Weather Advisory
Issued: 1:07 PM EST Nov. 18, 2019 – National Weather Service

... Winter Weather Advisory in effect from 5 PM this afternoon to
10 am EST Tuesday...

* what... mixed precipitation expected. Rain this afternoon changes
to a mix of freezing rain and sleet this evening, then gradually
changes to snow after midnight. Total snow accumulations of up
to one inch and ice accumulations of around one tenth of an
inch.

* Where... central Mohawk Valley, northeast Catskills, Schoharie
valley and helderbergs.

* When... from 5 PM this afternoon to 10 am EST Tuesday.

* Impacts... plan on slippery Road conditions. The hazardous
conditions could impact the evening and Tuesday morning
commutes.

Precautionary/preparedness actions...

Slow down and use caution while traveling.